sensor_id;sensor_type;location;lat;lon;timestamp;P1;durP1;ratioP1;P2;durP2;ratioP2
32108;SDS011;18624;50.042;8.436;2022-08-30T00:00:34;3.70;;;2.63;;
32108;SDS011;18624;50.042;8.436;2022-08-30T00:03:20;3.13;;;2.05;;
32108;SDS011;18624;50.042;8.436;2022-08-30T00:05:47;3.53;;;2.05;;
32108;SDS011;18624;50.042;8.436;2022-08-30T00:08:14;4.53;;;2.03;;
32108;SDS011;18624;50.042;8.436;2022-08-30T00:10:40;2.60;;;1.90;;
32108;SDS011;18624;50.042;8.436;2022-08-30T00:13:08;2.22;;;1.90;;
32108;SDS011;18624;50.042;8.436;2022-08-30T00:15:37;5.32;;;2.03;;
32108;SDS011;18624;50.042;8.436;2022-08-30T00:18:06;5.88;;;2.50;;
32108;SDS011;18624;50.042;8.436;2022-08-30T00:20:33;6.60;;;2.35;;
32108;SDS011;18624;50.042;8.436;2022-08-30T00:23:02;4.55;;;2.67;;
32108;SDS011;18624;50.042;8.436;2022-08-30T00:25:30;4.20;;;2.03;;
32108;SDS011;18624;50.042;8.436;2022-08-30T00:27:56;5.00;;;1.98;;
32108;SDS011;18624;50.042;8.436;2022-08-30T00:30:23;5.65;;;2.30;;
32108;SDS011;18624;50.042;8.436;2022-08-30T00:32:49;3.05;;;1.80;;
32108;SDS011;18624;50.042;8.436;2022-08-30T00:35:16;6.78;;;2.00;;
32108;SDS011;18624;50.042;8.436;2022-08-30T00:37:45;3.58;;;1.98;;
32108;SDS011;18624;50.042;8.436;2022-08-30T00:40:13;2.95;;;1.90;;
32108;SDS011;18624;50.042;8.436;2022-08-30T00:42:43;2.53;;;1.83;;
32108;SDS011;18624;50.042;8.436;2022-08-30T00:45:20;2.80;;;1.85;;
32108;SDS011;18624;50.042;8.436;2022-08-30T00:47:53;4.45;;;2.47;;
32108;SDS011;18624;50.042;8.436;2022-08-30T00:50:21;5.47;;;2.72;;
32108;SDS011;18624;50.042;8.436;2022-08-30T00:52:51;3.85;;;2.22;;
32108;SDS011;18624;50.042;8.436;2022-08-30T00:55:21;3.88;;;2.30;;
32108;SDS011;18624;50.042;8.436;2022-08-30T00:57:47;3.03;;;2.20;;
32108;SDS011;18624;50.042;8.436;2022-08-30T01:00:19;4.85;;;2.30;;
32108;SDS011;18624;50.042;8.436;2022-08-30T01:02:47;2.97;;;1.85;;
32108;SDS011;18624;50.042;8.436;2022-08-30T01:05:16;2.22;;;1.70;;
32108;SDS011;18624;50.042;8.436;2022-08-30T01:07:43;3.35;;;1.90;;
32108;SDS011;18624;50.042;8.436;2022-08-30T01:10:11;3.63;;;2.10;;
32108;SDS011;18624;50.042;8.436;2022-08-30T01:12:39;3.13;;;1.90;;
32108;SDS011;18624;50.042;8.436;2022-08-30T01:15:08;6.15;;;2.65;;
32108;SDS011;18624;50.042;8.436;2022-08-30T01:17:36;2.28;;;2.08;;
32108;SDS011;18624;50.042;8.436;2022-08-30T01:20:10;3.53;;;2.30;;
32108;SDS011;18624;50.042;8.436;2022-08-30T01:25:15;3.97;;;2.40;;
32108;SDS011;18624;50.042;8.436;2022-08-30T01:27:49;3.75;;;2.65;;
32108;SDS011;18624;50.042;8.436;2022-08-30T01:30:18;4.05;;;2.53;;
32108;SDS011;18624;50.042;8.436;2022-08-30T01:32:45;3.10;;;1.73;;
32108;SDS011;18624;50.042;8.436;2022-08-30T01:35:14;4.00;;;2.50;;
32108;SDS011;18624;50.042;8.436;2022-08-30T01:37:42;3.67;;;1.75;;
32108;SDS011;18624;50.042;8.436;2022-08-30T01:40:11;5.47;;;2.83;;
32108;SDS011;18624;50.042;8.436;2022-08-30T01:42:39;3.67;;;1.70;;
32108;SDS011;18624;50.042;8.436;2022-08-30T01:45:06;4.45;;;1.95;;
32108;SDS011;18624;50.042;8.436;2022-08-30T01:47:34;2.53;;;1.55;;
32108;SDS011;18624;50.042;8.436;2022-08-30T01:50:01;5.72;;;2.65;;
32108;SDS011;18624;50.042;8.436;2022-08-30T01:52:27;3.35;;;2.13;;
32108;SDS011;18624;50.042;8.436;2022-08-30T01:54:59;3.42;;;1.63;;
32108;SDS011;18624;50.042;8.436;2022-08-30T01:57:25;5.45;;;2.20;;
32108;SDS011;18624;50.042;8.436;2022-08-30T01:59:53;2.35;;;1.73;;
32108;SDS011;18624;50.042;8.436;2022-08-30T02:02:21;4.05;;;1.70;;
32108;SDS011;18624;50.042;8.436;2022-08-30T02:04:51;4.20;;;1.92;;
32108;SDS011;18624;50.042;8.436;2022-08-30T02:07:19;4.22;;;2.30;;
32108;SDS011;18624;50.042;8.436;2022-08-30T02:09:47;2.28;;;1.98;;
32108;SDS011;18624;50.042;8.436;2022-08-30T02:12:13;3.65;;;1.88;;
32108;SDS011;18624;50.042;8.436;2022-08-30T02:14:40;4.43;;;1.88;;
32108;SDS011;18624;50.042;8.436;2022-08-30T02:17:07;2.53;;;1.67;;
32108;SDS011;18624;50.042;8.436;2022-08-30T02:19:35;4.85;;;2.03;;
32108;SDS011;18624;50.042;8.436;2022-08-30T02:22:02;3.60;;;2.35;;
32108;SDS011;18624;50.042;8.436;2022-08-30T02:24:28;2.40;;;1.58;;
32108;SDS011;18624;50.042;8.436;2022-08-30T02:26:55;2.70;;;1.75;;
32108;SDS011;18624;50.042;8.436;2022-08-30T02:29:22;5.20;;;2.55;;
32108;SDS011;18624;50.042;8.436;2022-08-30T02:31:49;5.50;;;2.28;;
32108;SDS011;18624;50.042;8.436;2022-08-30T02:34:16;2.80;;;1.77;;
32108;SDS011;18624;50.042;8.436;2022-08-30T02:36:44;2.55;;;1.83;;
32108;SDS011;18624;50.042;8.436;2022-08-30T02:39:11;3.55;;;1.85;;
32108;SDS011;18624;50.042;8.436;2022-08-30T02:41:39;3.67;;;2.10;;
32108;SDS011;18624;50.042;8.436;2022-08-30T02:44:06;6.00;;;3.33;;
32108;SDS011;18624;50.042;8.436;2022-08-30T02:46:33;4.63;;;2.28;;
32108;SDS011;18624;50.042;8.436;2022-08-30T02:49:00;5.20;;;2.08;;
32108;SDS011;18624;50.042;8.436;2022-08-30T02:51:47;2.42;;;1.80;;
32108;SDS011;18624;50.042;8.436;2022-08-30T02:54:14;4.75;;;1.90;;
32108;SDS011;18624;50.042;8.436;2022-08-30T02:56:48;3.58;;;1.80;;
32108;SDS011;18624;50.042;8.436;2022-08-30T02:59:15;3.53;;;2.13;;
32108;SDS011;18624;50.042;8.436;2022-08-30T03:01:43;3.65;;;2.00;;
32108;SDS011;18624;50.042;8.436;2022-08-30T03:04:09;2.60;;;1.80;;
32108;SDS011;18624;50.042;8.436;2022-08-30T03:06:35;2.42;;;1.75;;
32108;SDS011;18624;50.042;8.436;2022-08-30T03:09:02;2.95;;;1.80;;
32108;SDS011;18624;50.042;8.436;2022-08-30T03:11:29;2.95;;;1.80;;
32108;SDS011;18624;50.042;8.436;2022-08-30T03:13:55;3.45;;;1.77;;
32108;SDS011;18624;50.042;8.436;2022-08-30T03:16:22;3.08;;;1.70;;
32108;SDS011;18624;50.042;8.436;2022-08-30T03:18:48;3.08;;;1.75;;
32108;SDS011;18624;50.042;8.436;2022-08-30T03:21:15;5.20;;;1.90;;
32108;SDS011;18624;50.042;8.436;2022-08-30T03:23:42;3.28;;;1.60;;
32108;SDS011;18624;50.042;8.436;2022-08-30T03:26:09;3.05;;;2.28;;
32108;SDS011;18624;50.042;8.436;2022-08-30T03:28:38;4.15;;;2.10;;
32108;SDS011;18624;50.042;8.436;2022-08-30T03:31:04;4.45;;;2.05;;
32108;SDS011;18624;50.042;8.436;2022-08-30T03:33:31;3.35;;;2.42;;
32108;SDS011;18624;50.042;8.436;2022-08-30T03:35:57;1.85;;;1.70;;
32108;SDS011;18624;50.042;8.436;2022-08-30T03:38:23;2.70;;;1.88;;
32108;SDS011;18624;50.042;8.436;2022-08-30T03:40:51;2.58;;;1.60;;
32108;SDS011;18624;50.042;8.436;2022-08-30T03:43:17;3.65;;;1.63;;
32108;SDS011;18624;50.042;8.436;2022-08-30T03:45:44;4.07;;;2.15;;
32108;SDS011;18624;50.042;8.436;2022-08-30T03:48:10;2.83;;;1.85;;
32108;SDS011;18624;50.042;8.436;2022-08-30T03:50:37;2.85;;;2.10;;
32108;SDS011;18624;50.042;8.436;2022-08-30T03:53:03;3.47;;;2.30;;
32108;SDS011;18624;50.042;8.436;2022-08-30T03:55:30;3.45;;;1.95;;
32108;SDS011;18624;50.042;8.436;2022-08-30T03:57:56;6.20;;;1.90;;
32108;SDS011;18624;50.042;8.436;2022-08-30T04:00:23;3.50;;;1.88;;
32108;SDS011;18624;50.042;8.436;2022-08-30T04:02:51;3.50;;;2.20;;
32108;SDS011;18624;50.042;8.436;2022-08-30T04:05:18;5.07;;;2.50;;
32108;SDS011;18624;50.042;8.436;2022-08-30T04:07:45;4.18;;;1.80;;
32108;SDS011;18624;50.042;8.436;2022-08-30T04:10:12;5.65;;;2.47;;
32108;SDS011;18624;50.042;8.436;2022-08-30T04:12:38;4.82;;;2.45;;
32108;SDS011;18624;50.042;8.436;2022-08-30T04:15:05;4.05;;;1.63;;
32108;SDS011;18624;50.042;8.436;2022-08-30T04:17:33;4.63;;;2.17;;
32108;SDS011;18624;50.042;8.436;2022-08-30T04:19:59;3.97;;;1.90;;
32108;SDS011;18624;50.042;8.436;2022-08-30T04:22:26;4.30;;;1.75;;
32108;SDS011;18624;50.042;8.436;2022-08-30T04:24:52;3.97;;;2.55;;
32108;SDS011;18624;50.042;8.436;2022-08-30T04:27:19;5.40;;;2.10;;
32108;SDS011;18624;50.042;8.436;2022-08-30T04:29:45;4.13;;;2.28;;
32108;SDS011;18624;50.042;8.436;2022-08-30T04:32:12;4.35;;;2.75;;
32108;SDS011;18624;50.042;8.436;2022-08-30T04:34:39;6.40;;;2.42;;
32108;SDS011;18624;50.042;8.436;2022-08-30T04:37:06;12.52;;;2.88;;
32108;SDS011;18624;50.042;8.436;2022-08-30T04:39:35;7.15;;;3.13;;
32108;SDS011;18624;50.042;8.436;2022-08-30T04:42:01;5.15;;;2.53;;
32108;SDS011;18624;50.042;8.436;2022-08-30T04:44:28;9.32;;;3.80;;
32108;SDS011;18624;50.042;8.436;2022-08-30T04:46:57;6.38;;;2.00;;
32108;SDS011;18624;50.042;8.436;2022-08-30T04:49:24;4.63;;;1.95;;
32108;SDS011;18624;50.042;8.436;2022-08-30T04:51:50;5.13;;;2.03;;
32108;SDS011;18624;50.042;8.436;2022-08-30T04:54:16;7.70;;;2.80;;
32108;SDS011;18624;50.042;8.436;2022-08-30T04:56:43;10.20;;;3.17;;
32108;SDS011;18624;50.042;8.436;2022-08-30T04:59:11;11.52;;;2.90;;
32108;SDS011;18624;50.042;8.436;2022-08-30T05:01:38;8.88;;;3.30;;
32108;SDS011;18624;50.042;8.436;2022-08-30T05:04:11;10.90;;;2.95;;
32108;SDS011;18624;50.042;8.436;2022-08-30T05:06:39;5.10;;;2.20;;
32108;SDS011;18624;50.042;8.436;2022-08-30T05:09:06;5.07;;;2.17;;
32108;SDS011;18624;50.042;8.436;2022-08-30T05:11:32;8.43;;;2.95;;
32108;SDS011;18624;50.042;8.436;2022-08-30T05:13:58;5.47;;;2.42;;
32108;SDS011;18624;50.042;8.436;2022-08-30T05:16:25;4.57;;;2.50;;
32108;SDS011;18624;50.042;8.436;2022-08-30T05:18:52;7.03;;;2.20;;
32108;SDS011;18624;50.042;8.436;2022-08-30T05:21:20;3.35;;;2.10;;
32108;SDS011;18624;50.042;8.436;2022-08-30T05:23:51;6.55;;;2.60;;
32108;SDS011;18624;50.042;8.436;2022-08-30T05:26:21;12.30;;;4.55;;
32108;SDS011;18624;50.042;8.436;2022-08-30T05:28:50;10.18;;;3.83;;
32108;SDS011;18624;50.042;8.436;2022-08-30T05:31:19;10.82;;;2.88;;
32108;SDS011;18624;50.042;8.436;2022-08-30T05:33:51;11.15;;;3.80;;
32108;SDS011;18624;50.042;8.436;2022-08-30T05:36:20;8.48;;;3.58;;
32108;SDS011;18624;50.042;8.436;2022-08-30T05:38:48;7.22;;;2.65;;
32108;SDS011;18624;50.042;8.436;2022-08-30T05:41:17;8.73;;;2.95;;
32108;SDS011;18624;50.042;8.436;2022-08-30T05:43:45;8.13;;;2.67;;
32108;SDS011;18624;50.042;8.436;2022-08-30T05:46:13;10.23;;;3.20;;
32108;SDS011;18624;50.042;8.436;2022-08-30T05:48:44;7.93;;;3.17;;
32108;SDS011;18624;50.042;8.436;2022-08-30T05:51:12;8.02;;;2.70;;
32108;SDS011;18624;50.042;8.436;2022-08-30T05:53:42;9.98;;;3.10;;
32108;SDS011;18624;50.042;8.436;2022-08-30T05:56:10;7.93;;;2.65;;
32108;SDS011;18624;50.042;8.436;2022-08-30T05:58:38;5.70;;;3.03;;
32108;SDS011;18624;50.042;8.436;2022-08-30T06:01:05;5.20;;;2.85;;
32108;SDS011;18624;50.042;8.436;2022-08-30T06:03:32;7.55;;;3.05;;
32108;SDS011;18624;50.042;8.436;2022-08-30T06:05:59;5.32;;;3.38;;
32108;SDS011;18624;50.042;8.436;2022-08-30T06:08:26;9.23;;;3.00;;
32108;SDS011;18624;50.042;8.436;2022-08-30T06:10:52;8.88;;;3.47;;
32108;SDS011;18624;50.042;8.436;2022-08-30T06:13:18;6.85;;;2.60;;
32108;SDS011;18624;50.042;8.436;2022-08-30T06:15:45;14.82;;;4.00;;
32108;SDS011;18624;50.042;8.436;2022-08-30T06:18:12;13.32;;;4.25;;
32108;SDS011;18624;50.042;8.436;2022-08-30T06:20:42;9.10;;;3.30;;
32108;SDS011;18624;50.042;8.436;2022-08-30T06:23:16;11.65;;;3.85;;
32108;SDS011;18624;50.042;8.436;2022-08-30T06:25:43;6.65;;;3.63;;
32108;SDS011;18624;50.042;8.436;2022-08-30T06:28:10;9.15;;;3.58;;
32108;SDS011;18624;50.042;8.436;2022-08-30T06:30:38;15.25;;;3.83;;
32108;SDS011;18624;50.042;8.436;2022-08-30T06:33:07;10.18;;;4.88;;
32108;SDS011;18624;50.042;8.436;2022-08-30T06:35:34;10.10;;;3.47;;
32108;SDS011;18624;50.042;8.436;2022-08-30T06:38:21;10.93;;;3.10;;
32108;SDS011;18624;50.042;8.436;2022-08-30T06:40:47;8.82;;;3.53;;
32108;SDS011;18624;50.042;8.436;2022-08-30T06:43:15;8.32;;;3.10;;
32108;SDS011;18624;50.042;8.436;2022-08-30T06:45:42;12.93;;;4.05;;
32108;SDS011;18624;50.042;8.436;2022-08-30T06:48:08;8.18;;;3.60;;
32108;SDS011;18624;50.042;8.436;2022-08-30T06:50:35;8.88;;;3.67;;
32108;SDS011;18624;50.042;8.436;2022-08-30T06:53:01;9.38;;;3.15;;
32108;SDS011;18624;50.042;8.436;2022-08-30T06:55:30;7.53;;;3.20;;
32108;SDS011;18624;50.042;8.436;2022-08-30T06:58:00;5.90;;;2.60;;
32108;SDS011;18624;50.042;8.436;2022-08-30T07:00:27;13.27;;;2.92;;
32108;SDS011;18624;50.042;8.436;2022-08-30T07:02:54;7.72;;;3.45;;
32108;SDS011;18624;50.042;8.436;2022-08-30T07:05:21;9.48;;;3.10;;
32108;SDS011;18624;50.042;8.436;2022-08-30T07:07:51;10.18;;;3.28;;
32108;SDS011;18624;50.042;8.436;2022-08-30T07:10:21;5.07;;;2.92;;
32108;SDS011;18624;50.042;8.436;2022-08-30T07:12:47;8.43;;;2.80;;
32108;SDS011;18624;50.042;8.436;2022-08-30T07:15:14;11.55;;;3.75;;
32108;SDS011;18624;50.042;8.436;2022-08-30T07:17:41;6.65;;;2.42;;
32108;SDS011;18624;50.042;8.436;2022-08-30T07:20:26;4.20;;;2.20;;
32108;SDS011;18624;50.042;8.436;2022-08-30T07:23:05;4.43;;;2.40;;
32108;SDS011;18624;50.042;8.436;2022-08-30T07:25:31;8.18;;;3.28;;
32108;SDS011;18624;50.042;8.436;2022-08-30T07:27:58;6.88;;;3.05;;
32108;SDS011;18624;50.042;8.436;2022-08-30T07:30:24;9.40;;;3.05;;
32108;SDS011;18624;50.042;8.436;2022-08-30T07:32:51;5.40;;;3.00;;
32108;SDS011;18624;50.042;8.436;2022-08-30T07:35:17;11.90;;;3.65;;
32108;SDS011;18624;50.042;8.436;2022-08-30T07:37:44;5.40;;;2.67;;
32108;SDS011;18624;50.042;8.436;2022-08-30T07:40:10;5.57;;;2.78;;
32108;SDS011;18624;50.042;8.436;2022-08-30T07:42:37;5.75;;;3.25;;
32108;SDS011;18624;50.042;8.436;2022-08-30T07:45:06;4.55;;;2.53;;
32108;SDS011;18624;50.042;8.436;2022-08-30T07:47:33;4.82;;;2.63;;
32108;SDS011;18624;50.042;8.436;2022-08-30T07:50:00;6.10;;;2.83;;
32108;SDS011;18624;50.042;8.436;2022-08-30T07:52:27;6.18;;;2.45;;
32108;SDS011;18624;50.042;8.436;2022-08-30T07:54:56;4.25;;;2.28;;
32108;SDS011;18624;50.042;8.436;2022-08-30T07:57:23;6.63;;;3.05;;
32108;SDS011;18624;50.042;8.436;2022-08-30T07:59:50;5.38;;;2.85;;
32108;SDS011;18624;50.042;8.436;2022-08-30T08:02:17;6.38;;;2.58;;
32108;SDS011;18624;50.042;8.436;2022-08-30T08:04:44;3.38;;;2.47;;
32108;SDS011;18624;50.042;8.436;2022-08-30T08:07:11;6.05;;;2.50;;
32108;SDS011;18624;50.042;8.436;2022-08-30T08:09:38;5.30;;;3.05;;
32108;SDS011;18624;50.042;8.436;2022-08-30T08:12:05;7.43;;;2.70;;
32108;SDS011;18624;50.042;8.436;2022-08-30T08:14:33;3.70;;;2.33;;
32108;SDS011;18624;50.042;8.436;2022-08-30T08:17:00;5.38;;;2.40;;
32108;SDS011;18624;50.042;8.436;2022-08-30T08:19:27;5.90;;;2.88;;
32108;SDS011;18624;50.042;8.436;2022-08-30T08:21:53;6.03;;;2.45;;
32108;SDS011;18624;50.042;8.436;2022-08-30T08:24:41;5.32;;;2.60;;
32108;SDS011;18624;50.042;8.436;2022-08-30T08:27:08;6.78;;;3.03;;
32108;SDS011;18624;50.042;8.436;2022-08-30T08:29:34;5.95;;;2.75;;
32108;SDS011;18624;50.042;8.436;2022-08-30T08:32:01;4.85;;;2.40;;
32108;SDS011;18624;50.042;8.436;2022-08-30T08:34:27;4.68;;;2.72;;
32108;SDS011;18624;50.042;8.436;2022-08-30T08:36:54;5.93;;;2.63;;
32108;SDS011;18624;50.042;8.436;2022-08-30T08:39:20;5.60;;;2.78;;
32108;SDS011;18624;50.042;8.436;2022-08-30T08:41:53;8.10;;;2.92;;
32108;SDS011;18624;50.042;8.436;2022-08-30T08:50:17;7.03;;;3.55;;
32108;SDS011;18624;50.042;8.436;2022-08-30T08:56:13;6.10;;;3.58;;
32108;SDS011;18624;50.042;8.436;2022-08-30T08:58:46;6.05;;;3.28;;
32108;SDS011;18624;50.042;8.436;2022-08-30T09:01:18;6.53;;;3.10;;
32108;SDS011;18624;50.042;8.436;2022-08-30T09:03:46;4.20;;;3.05;;
32108;SDS011;18624;50.042;8.436;2022-08-30T09:09:31;6.03;;;3.13;;
32108;SDS011;18624;50.042;8.436;2022-08-30T09:14:30;7.75;;;3.45;;
32108;SDS011;18624;50.042;8.436;2022-08-30T09:17:05;6.90;;;2.45;;
32108;SDS011;18624;50.042;8.436;2022-08-30T09:19:38;5.82;;;2.92;;
32108;SDS011;18624;50.042;8.436;2022-08-30T09:22:38;6.68;;;2.90;;
32108;SDS011;18624;50.042;8.436;2022-08-30T09:30:07;4.65;;;2.63;;
32108;SDS011;18624;50.042;8.436;2022-08-30T09:32:59;6.28;;;3.50;;
32108;SDS011;18624;50.042;8.436;2022-08-30T09:38:09;5.88;;;3.38;;
32108;SDS011;18624;50.042;8.436;2022-08-30T09:40:58;6.97;;;2.67;;
32108;SDS011;18624;50.042;8.436;2022-08-30T09:43:28;5.07;;;3.28;;
32108;SDS011;18624;50.042;8.436;2022-08-30T09:48:28;5.25;;;2.92;;
32108;SDS011;18624;50.042;8.436;2022-08-30T09:53:56;4.43;;;2.47;;
32108;SDS011;18624;50.042;8.436;2022-08-30T09:59:47;5.50;;;2.88;;
32108;SDS011;18624;50.042;8.436;2022-08-30T10:05:19;6.13;;;2.85;;
32108;SDS011;18624;50.042;8.436;2022-08-30T10:11:01;7.93;;;2.40;;
32108;SDS011;18624;50.042;8.436;2022-08-30T10:13:36;9.10;;;2.80;;
32108;SDS011;18624;50.042;8.436;2022-08-30T10:18:58;7.75;;;3.33;;
32108;SDS011;18624;50.042;8.436;2022-08-30T10:21:38;6.00;;;2.58;;
32108;SDS011;18624;50.042;8.436;2022-08-30T10:24:10;4.00;;;2.17;;
32108;SDS011;18624;50.042;8.436;2022-08-30T10:26:48;5.00;;;2.40;;
32108;SDS011;18624;50.042;8.436;2022-08-30T10:29:22;4.75;;;2.30;;
32108;SDS011;18624;50.042;8.436;2022-08-30T10:37:16;4.90;;;2.38;;
32108;SDS011;18624;50.042;8.436;2022-08-30T10:39:53;6.78;;;2.60;;
32108;SDS011;18624;50.042;8.436;2022-08-30T10:42:25;5.43;;;3.05;;
32108;SDS011;18624;50.042;8.436;2022-08-30T10:45:06;3.92;;;2.50;;
32108;SDS011;18624;50.042;8.436;2022-08-30T10:47:39;3.08;;;2.47;;
32108;SDS011;18624;50.042;8.436;2022-08-30T10:50:24;4.60;;;2.28;;
32108;SDS011;18624;50.042;8.436;2022-08-30T10:53:00;4.55;;;2.45;;
32108;SDS011;18624;50.042;8.436;2022-08-30T10:55:36;3.58;;;2.60;;
32108;SDS011;18624;50.042;8.436;2022-08-30T10:58:15;4.50;;;2.30;;
32108;SDS011;18624;50.042;8.436;2022-08-30T11:11:34;5.10;;;2.40;;
32108;SDS011;18624;50.042;8.436;2022-08-30T11:14:15;3.15;;;2.08;;
32108;SDS011;18624;50.042;8.436;2022-08-30T11:16:45;5.22;;;2.40;;
32108;SDS011;18624;50.042;8.436;2022-08-30T11:19:23;4.20;;;2.20;;
32108;SDS011;18624;50.042;8.436;2022-08-30T11:22:14;5.10;;;3.05;;
32108;SDS011;18624;50.042;8.436;2022-08-30T11:27:39;4.38;;;2.70;;
32108;SDS011;18624;50.042;8.436;2022-08-30T11:48:54;4.40;;;2.95;;
32108;SDS011;18624;50.042;8.436;2022-08-30T11:57:49;6.60;;;2.90;;
32108;SDS011;18624;50.042;8.436;2022-08-30T12:03:04;5.00;;;2.50;;
32108;SDS011;18624;50.042;8.436;2022-08-30T12:08:09;5.70;;;2.47;;
32108;SDS011;18624;50.042;8.436;2022-08-30T12:10:47;4.82;;;2.60;;
32108;SDS011;18624;50.042;8.436;2022-08-30T12:16:01;5.13;;;2.45;;
32108;SDS011;18624;50.042;8.436;2022-08-30T12:18:46;4.10;;;2.30;;
32108;SDS011;18624;50.042;8.436;2022-08-30T12:26:40;3.15;;;2.42;;
32108;SDS011;18624;50.042;8.436;2022-08-30T12:29:17;6.63;;;3.05;;
32108;SDS011;18624;50.042;8.436;2022-08-30T12:31:53;2.95;;;2.45;;
32108;SDS011;18624;50.042;8.436;2022-08-30T12:37:04;2.75;;;2.33;;
32108;SDS011;18624;50.042;8.436;2022-08-30T12:39:37;4.30;;;2.65;;
32108;SDS011;18624;50.042;8.436;2022-08-30T12:42:16;3.25;;;2.78;;
32108;SDS011;18624;50.042;8.436;2022-08-30T12:44:45;3.20;;;2.65;;
32108;SDS011;18624;50.042;8.436;2022-08-30T12:47:13;3.00;;;2.22;;
32108;SDS011;18624;50.042;8.436;2022-08-30T12:49:50;3.78;;;2.25;;
32108;SDS011;18624;50.042;8.436;2022-08-30T12:52:29;4.15;;;2.40;;
32108;SDS011;18624;50.042;8.436;2022-08-30T12:55:11;3.45;;;2.72;;
32108;SDS011;18624;50.042;8.436;2022-08-30T13:00:36;4.25;;;2.50;;
32108;SDS011;18624;50.042;8.436;2022-08-30T13:05:57;3.03;;;2.72;;
32108;SDS011;18624;50.042;8.436;2022-08-30T13:08:35;4.43;;;2.95;;
32108;SDS011;18624;50.042;8.436;2022-08-30T13:13:50;4.60;;;2.65;;
32108;SDS011;18624;50.042;8.436;2022-08-30T13:16:24;5.15;;;2.83;;
32108;SDS011;18624;50.042;8.436;2022-08-30T13:22:00;4.45;;;3.00;;
32108;SDS011;18624;50.042;8.436;2022-08-30T13:24:27;3.17;;;2.85;;
32108;SDS011;18624;50.042;8.436;2022-08-30T13:26:55;3.40;;;2.60;;
32108;SDS011;18624;50.042;8.436;2022-08-30T13:29:28;2.95;;;2.50;;
32108;SDS011;18624;50.042;8.436;2022-08-30T13:31:55;4.60;;;2.60;;
32108;SDS011;18624;50.042;8.436;2022-08-30T13:34:22;4.35;;;2.90;;
32108;SDS011;18624;50.042;8.436;2022-08-30T13:36:50;3.00;;;2.70;;
32108;SDS011;18624;50.042;8.436;2022-08-30T13:39:19;3.60;;;2.78;;
32108;SDS011;18624;50.042;8.436;2022-08-30T13:41:47;3.22;;;2.53;;
32108;SDS011;18624;50.042;8.436;2022-08-30T13:44:14;4.00;;;2.75;;
32108;SDS011;18624;50.042;8.436;2022-08-30T13:46:42;3.58;;;2.58;;
32108;SDS011;18624;50.042;8.436;2022-08-30T13:49:24;7.53;;;3.60;;
32108;SDS011;18624;50.042;8.436;2022-08-30T13:52:10;3.38;;;2.90;;
32108;SDS011;18624;50.042;8.436;2022-08-30T13:54:47;2.60;;;2.40;;
32108;SDS011;18624;50.042;8.436;2022-08-30T13:57:20;5.85;;;2.85;;
32108;SDS011;18624;50.042;8.436;2022-08-30T14:00:10;4.03;;;2.80;;
32108;SDS011;18624;50.042;8.436;2022-08-30T14:02:43;4.70;;;2.60;;
32108;SDS011;18624;50.042;8.436;2022-08-30T14:05:16;3.03;;;2.55;;
32108;SDS011;18624;50.042;8.436;2022-08-30T14:08:03;3.00;;;2.60;;
32108;SDS011;18624;50.042;8.436;2022-08-30T14:10:31;4.47;;;2.80;;
32108;SDS011;18624;50.042;8.436;2022-08-30T14:13:03;3.85;;;2.45;;
32108;SDS011;18624;50.042;8.436;2022-08-30T14:15:35;6.55;;;3.15;;
32108;SDS011;18624;50.042;8.436;2022-08-30T14:18:04;3.17;;;2.30;;
32108;SDS011;18624;50.042;8.436;2022-08-30T14:20:32;3.00;;;2.63;;
32108;SDS011;18624;50.042;8.436;2022-08-30T14:23:04;4.55;;;3.72;;
32108;SDS011;18624;50.042;8.436;2022-08-30T14:25:35;4.35;;;2.63;;
32108;SDS011;18624;50.042;8.436;2022-08-30T14:28:02;5.22;;;2.85;;
32108;SDS011;18624;50.042;8.436;2022-08-30T14:30:29;3.38;;;2.65;;
32108;SDS011;18624;50.042;8.436;2022-08-30T14:32:58;2.88;;;2.67;;
32108;SDS011;18624;50.042;8.436;2022-08-30T14:35:24;3.55;;;2.70;;
32108;SDS011;18624;50.042;8.436;2022-08-30T14:37:52;5.80;;;3.08;;
32108;SDS011;18624;50.042;8.436;2022-08-30T14:40:19;4.18;;;2.88;;
32108;SDS011;18624;50.042;8.436;2022-08-30T14:42:45;3.28;;;2.67;;
32108;SDS011;18624;50.042;8.436;2022-08-30T14:45:12;8.45;;;3.28;;
32108;SDS011;18624;50.042;8.436;2022-08-30T14:47:38;4.50;;;2.70;;
32108;SDS011;18624;50.042;8.436;2022-08-30T14:50:05;4.20;;;2.88;;
32108;SDS011;18624;50.042;8.436;2022-08-30T14:52:32;6.05;;;3.00;;
32108;SDS011;18624;50.042;8.436;2022-08-30T14:55:00;4.05;;;3.10;;
32108;SDS011;18624;50.042;8.436;2022-08-30T14:57:34;6.47;;;2.45;;
32108;SDS011;18624;50.042;8.436;2022-08-30T15:00:04;3.95;;;2.78;;
32108;SDS011;18624;50.042;8.436;2022-08-30T15:02:33;3.35;;;3.05;;
32108;SDS011;18624;50.042;8.436;2022-08-30T15:05:00;4.63;;;2.63;;
32108;SDS011;18624;50.042;8.436;2022-08-30T15:07:26;3.22;;;2.40;;
32108;SDS011;18624;50.042;8.436;2022-08-30T15:09:53;5.28;;;2.83;;
32108;SDS011;18624;50.042;8.436;2022-08-30T15:12:19;4.45;;;2.60;;
32108;SDS011;18624;50.042;8.436;2022-08-30T15:14:45;3.33;;;2.50;;
32108;SDS011;18624;50.042;8.436;2022-08-30T15:17:12;3.47;;;2.72;;
32108;SDS011;18624;50.042;8.436;2022-08-30T15:19:38;3.70;;;2.80;;
32108;SDS011;18624;50.042;8.436;2022-08-30T15:22:05;2.90;;;2.65;;
32108;SDS011;18624;50.042;8.436;2022-08-30T15:24:35;4.03;;;2.97;;
32108;SDS011;18624;50.042;8.436;2022-08-30T15:27:02;3.40;;;2.85;;
32108;SDS011;18624;50.042;8.436;2022-08-30T15:29:31;3.60;;;2.75;;
32108;SDS011;18624;50.042;8.436;2022-08-30T15:31:58;2.72;;;2.30;;
32108;SDS011;18624;50.042;8.436;2022-08-30T15:34:25;3.40;;;2.95;;
32108;SDS011;18624;50.042;8.436;2022-08-30T15:36:53;3.22;;;2.88;;
32108;SDS011;18624;50.042;8.436;2022-08-30T15:39:20;2.50;;;2.30;;
32108;SDS011;18624;50.042;8.436;2022-08-30T15:41:50;3.38;;;2.55;;
32108;SDS011;18624;50.042;8.436;2022-08-30T15:44:23;2.67;;;2.45;;
32108;SDS011;18624;50.042;8.436;2022-08-30T15:46:50;4.78;;;2.40;;
32108;SDS011;18624;50.042;8.436;2022-08-30T15:49:19;2.97;;;2.45;;
32108;SDS011;18624;50.042;8.436;2022-08-30T15:51:47;3.67;;;2.33;;
32108;SDS011;18624;50.042;8.436;2022-08-30T15:54:20;2.88;;;2.53;;
32108;SDS011;18624;50.042;8.436;2022-08-30T15:56:51;5.28;;;3.10;;
32108;SDS011;18624;50.042;8.436;2022-08-30T15:59:24;3.78;;;2.63;;
32108;SDS011;18624;50.042;8.436;2022-08-30T16:01:54;3.53;;;2.58;;
32108;SDS011;18624;50.042;8.436;2022-08-30T16:04:22;4.47;;;2.60;;
32108;SDS011;18624;50.042;8.436;2022-08-30T16:06:50;3.65;;;2.72;;
32108;SDS011;18624;50.042;8.436;2022-08-30T16:09:17;6.22;;;3.13;;
32108;SDS011;18624;50.042;8.436;2022-08-30T16:11:44;5.18;;;2.88;;
32108;SDS011;18624;50.042;8.436;2022-08-30T16:14:10;3.15;;;2.20;;
32108;SDS011;18624;50.042;8.436;2022-08-30T16:16:37;4.05;;;2.80;;
32108;SDS011;18624;50.042;8.436;2022-08-30T16:19:06;2.85;;;2.35;;
32108;SDS011;18624;50.042;8.436;2022-08-30T16:21:34;3.40;;;2.92;;
32108;SDS011;18624;50.042;8.436;2022-08-30T16:24:02;4.22;;;2.67;;
32108;SDS011;18624;50.042;8.436;2022-08-30T16:26:31;3.67;;;2.60;;
32108;SDS011;18624;50.042;8.436;2022-08-30T16:28:59;2.72;;;2.53;;
32108;SDS011;18624;50.042;8.436;2022-08-30T16:31:27;3.28;;;2.17;;
32108;SDS011;18624;50.042;8.436;2022-08-30T16:33:56;3.40;;;2.70;;
32108;SDS011;18624;50.042;8.436;2022-08-30T16:36:29;3.35;;;2.13;;
32108;SDS011;18624;50.042;8.436;2022-08-30T16:38:57;3.22;;;2.83;;
32108;SDS011;18624;50.042;8.436;2022-08-30T16:41:24;4.80;;;3.83;;
32108;SDS011;18624;50.042;8.436;2022-08-30T16:43:51;2.97;;;2.55;;
32108;SDS011;18624;50.042;8.436;2022-08-30T16:46:19;4.43;;;3.17;;
32108;SDS011;18624;50.042;8.436;2022-08-30T16:48:48;9.07;;;3.80;;
32108;SDS011;18624;50.042;8.436;2022-08-30T16:51:16;3.63;;;2.90;;
32108;SDS011;18624;50.042;8.436;2022-08-30T16:53:45;3.65;;;2.88;;
32108;SDS011;18624;50.042;8.436;2022-08-30T16:56:17;5.05;;;2.90;;